sensor_id;sensor_type;location;lat;lon;timestamp;P1;durP1;ratioP1;P2;durP2;ratioP2
54993;SDS011;40891;47.242;8.648;2022-09-06T00:01:38;7.00;;;3.00;;
54993;SDS011;40891;47.242;8.648;2022-09-06T00:04:03;9.02;;;3.50;;
54993;SDS011;40891;47.242;8.648;2022-09-06T00:06:29;6.85;;;3.60;;
54993;SDS011;40891;47.242;8.648;2022-09-06T00:08:54;3.55;;;2.80;;
54993;SDS011;40891;47.242;8.648;2022-09-06T00:11:19;10.25;;;3.70;;
54993;SDS011;40891;47.242;8.648;2022-09-06T00:13:45;8.52;;;3.10;;
54993;SDS011;40891;47.242;8.648;2022-09-06T00:16:12;3.92;;;2.92;;
54993;SDS011;40891;47.242;8.648;2022-09-06T00:18:41;3.88;;;3.10;;
54993;SDS011;40891;47.242;8.648;2022-09-06T00:21:17;6.47;;;3.15;;
54993;SDS011;40891;47.242;8.648;2022-09-06T00:23:47;5.32;;;2.97;;
54993;SDS011;40891;47.242;8.648;2022-09-06T00:26:12;7.43;;;3.05;;
54993;SDS011;40891;47.242;8.648;2022-09-06T00:28:38;6.35;;;2.85;;
54993;SDS011;40891;47.242;8.648;2022-09-06T00:31:10;4.32;;;2.70;;
54993;SDS011;40891;47.242;8.648;2022-09-06T00:33:38;9.90;;;3.42;;
54993;SDS011;40891;47.242;8.648;2022-09-06T00:36:03;4.25;;;2.78;;
54993;SDS011;40891;47.242;8.648;2022-09-06T00:38:29;3.47;;;2.78;;
54993;SDS011;40891;47.242;8.648;2022-09-06T00:40:55;4.55;;;2.63;;
54993;SDS011;40891;47.242;8.648;2022-09-06T00:43:21;4.40;;;3.10;;
54993;SDS011;40891;47.242;8.648;2022-09-06T00:45:46;4.30;;;2.72;;
54993;SDS011;40891;47.242;8.648;2022-09-06T00:48:11;4.80;;;2.90;;
54993;SDS011;40891;47.242;8.648;2022-09-06T00:50:38;2.88;;;2.67;;
54993;SDS011;40891;47.242;8.648;2022-09-06T00:53:03;6.07;;;3.08;;
54993;SDS011;40891;47.242;8.648;2022-09-06T00:55:28;5.25;;;2.92;;
54993;SDS011;40891;47.242;8.648;2022-09-06T00:57:54;5.18;;;3.17;;
54993;SDS011;40891;47.242;8.648;2022-09-06T01:00:20;5.90;;;2.47;;
54993;SDS011;40891;47.242;8.648;2022-09-06T01:02:46;6.28;;;3.45;;
54993;SDS011;40891;47.242;8.648;2022-09-06T01:05:12;4.93;;;2.60;;
54993;SDS011;40891;47.242;8.648;2022-09-06T01:18:48;5.40;;;3.30;;
54993;SDS011;40891;47.242;8.648;2022-09-06T01:21:24;6.90;;;2.92;;
54993;SDS011;40891;47.242;8.648;2022-09-06T01:26:56;3.25;;;2.60;;
54993;SDS011;40891;47.242;8.648;2022-09-06T01:29:31;3.17;;;2.60;;
54993;SDS011;40891;47.242;8.648;2022-09-06T01:32:19;4.88;;;2.60;;
54993;SDS011;40891;47.242;8.648;2022-09-06T01:34:51;5.32;;;2.33;;
54993;SDS011;40891;47.242;8.648;2022-09-06T01:37:22;3.92;;;2.50;;
54993;SDS011;40891;47.242;8.648;2022-09-06T01:39:48;4.85;;;2.78;;
54993;SDS011;40891;47.242;8.648;2022-09-06T01:42:18;6.43;;;2.72;;
54993;SDS011;40891;47.242;8.648;2022-09-06T01:44:50;4.68;;;2.42;;
54993;SDS011;40891;47.242;8.648;2022-09-06T02:01:11;4.05;;;2.45;;
54993;SDS011;40891;47.242;8.648;2022-09-06T02:03:46;3.50;;;2.47;;
54993;SDS011;40891;47.242;8.648;2022-09-06T02:06:42;2.88;;;2.47;;
54993;SDS011;40891;47.242;8.648;2022-09-06T02:09:13;2.70;;;2.40;;
54993;SDS011;40891;47.242;8.648;2022-09-06T02:11:43;3.13;;;2.83;;
54993;SDS011;40891;47.242;8.648;2022-09-06T02:14:15;4.88;;;2.47;;
54993;SDS011;40891;47.242;8.648;2022-09-06T02:16:44;6.03;;;2.60;;
54993;SDS011;40891;47.242;8.648;2022-09-06T02:19:22;7.10;;;2.80;;
54993;SDS011;40891;47.242;8.648;2022-09-06T02:21:56;4.60;;;3.00;;
54993;SDS011;40891;47.242;8.648;2022-09-06T02:24:24;4.25;;;2.83;;
54993;SDS011;40891;47.242;8.648;2022-09-06T02:26:54;5.00;;;3.05;;
54993;SDS011;40891;47.242;8.648;2022-09-06T02:29:20;4.40;;;2.78;;
54993;SDS011;40891;47.242;8.648;2022-09-06T02:31:47;3.78;;;2.80;;
54993;SDS011;40891;47.242;8.648;2022-09-06T02:34:17;4.75;;;2.50;;
54993;SDS011;40891;47.242;8.648;2022-09-06T02:36:44;5.43;;;2.88;;
54993;SDS011;40891;47.242;8.648;2022-09-06T02:39:11;4.57;;;2.83;;
54993;SDS011;40891;47.242;8.648;2022-09-06T02:41:36;4.50;;;2.58;;
54993;SDS011;40891;47.242;8.648;2022-09-06T02:44:03;3.88;;;2.92;;
54993;SDS011;40891;47.242;8.648;2022-09-06T02:46:29;4.22;;;2.63;;
54993;SDS011;40891;47.242;8.648;2022-09-06T02:48:54;5.32;;;2.70;;
54993;SDS011;40891;47.242;8.648;2022-09-06T02:51:20;4.75;;;2.60;;
54993;SDS011;40891;47.242;8.648;2022-09-06T02:53:45;6.45;;;3.13;;
54993;SDS011;40891;47.242;8.648;2022-09-06T02:56:10;5.60;;;3.10;;
54993;SDS011;40891;47.242;8.648;2022-09-06T02:58:36;4.18;;;2.45;;
54993;SDS011;40891;47.242;8.648;2022-09-06T03:01:01;5.35;;;2.70;;
54993;SDS011;40891;47.242;8.648;2022-09-06T03:03:27;5.55;;;2.53;;
54993;SDS011;40891;47.242;8.648;2022-09-06T03:05:53;5.97;;;2.67;;
54993;SDS011;40891;47.242;8.648;2022-09-06T03:08:19;6.95;;;2.88;;
54993;SDS011;40891;47.242;8.648;2022-09-06T03:10:50;6.07;;;2.60;;
54993;SDS011;40891;47.242;8.648;2022-09-06T03:13:21;4.22;;;2.60;;
54993;SDS011;40891;47.242;8.648;2022-09-06T03:15:51;3.63;;;2.72;;
54993;SDS011;40891;47.242;8.648;2022-09-06T03:18:18;3.47;;;2.50;;
54993;SDS011;40891;47.242;8.648;2022-09-06T03:20:43;4.47;;;2.67;;
54993;SDS011;40891;47.242;8.648;2022-09-06T03:23:08;5.05;;;2.65;;
54993;SDS011;40891;47.242;8.648;2022-09-06T03:25:35;4.47;;;2.65;;
54993;SDS011;40891;47.242;8.648;2022-09-06T03:28:00;5.00;;;2.80;;
54993;SDS011;40891;47.242;8.648;2022-09-06T03:30:26;4.35;;;2.90;;
54993;SDS011;40891;47.242;8.648;2022-09-06T03:32:51;4.45;;;2.83;;
54993;SDS011;40891;47.242;8.648;2022-09-06T03:35:16;5.22;;;2.55;;
54993;SDS011;40891;47.242;8.648;2022-09-06T03:37:42;3.70;;;2.88;;
54993;SDS011;40891;47.242;8.648;2022-09-06T03:40:07;3.97;;;3.33;;
54993;SDS011;40891;47.242;8.648;2022-09-06T03:42:33;6.88;;;3.20;;
54993;SDS011;40891;47.242;8.648;2022-09-06T03:44:58;7.45;;;2.67;;
54993;SDS011;40891;47.242;8.648;2022-09-06T03:47:24;9.43;;;3.20;;
54993;SDS011;40891;47.242;8.648;2022-09-06T03:49:49;4.85;;;2.88;;
54993;SDS011;40891;47.242;8.648;2022-09-06T03:52:15;5.75;;;3.03;;
54993;SDS011;40891;47.242;8.648;2022-09-06T03:54:41;5.70;;;2.83;;
54993;SDS011;40891;47.242;8.648;2022-09-06T03:57:06;7.00;;;3.35;;
54993;SDS011;40891;47.242;8.648;2022-09-06T03:59:32;5.20;;;2.88;;
54993;SDS011;40891;47.242;8.648;2022-09-06T04:01:57;5.15;;;3.15;;
54993;SDS011;40891;47.242;8.648;2022-09-06T04:04:22;7.57;;;3.80;;
54993;SDS011;40891;47.242;8.648;2022-09-06T04:06:48;5.25;;;3.30;;
54993;SDS011;40891;47.242;8.648;2022-09-06T04:09:13;7.35;;;3.17;;
54993;SDS011;40891;47.242;8.648;2022-09-06T04:11:39;6.07;;;3.78;;
54993;SDS011;40891;47.242;8.648;2022-09-06T04:14:05;5.03;;;3.35;;
54993;SDS011;40891;47.242;8.648;2022-09-06T04:16:30;5.88;;;3.63;;
54993;SDS011;40891;47.242;8.648;2022-09-06T04:18:55;7.10;;;3.38;;
54993;SDS011;40891;47.242;8.648;2022-09-06T04:21:21;7.82;;;3.30;;
54993;SDS011;40891;47.242;8.648;2022-09-06T04:23:47;3.75;;;3.00;;
54993;SDS011;40891;47.242;8.648;2022-09-06T04:26:12;6.22;;;3.45;;
54993;SDS011;40891;47.242;8.648;2022-09-06T04:28:37;6.95;;;3.55;;
54993;SDS011;40891;47.242;8.648;2022-09-06T04:31:03;7.03;;;4.00;;
54993;SDS011;40891;47.242;8.648;2022-09-06T04:33:29;7.95;;;3.58;;
54993;SDS011;40891;47.242;8.648;2022-09-06T04:35:55;6.97;;;3.92;;
54993;SDS011;40891;47.242;8.648;2022-09-06T04:38:23;4.72;;;3.80;;
54993;SDS011;40891;47.242;8.648;2022-09-06T04:40:50;6.03;;;3.45;;
54993;SDS011;40891;47.242;8.648;2022-09-06T04:43:15;5.93;;;3.83;;
54993;SDS011;40891;47.242;8.648;2022-09-06T04:45:40;10.30;;;3.92;;
54993;SDS011;40891;47.242;8.648;2022-09-06T04:48:06;5.57;;;3.60;;
54993;SDS011;40891;47.242;8.648;2022-09-06T04:50:32;4.68;;;3.60;;
54993;SDS011;40891;47.242;8.648;2022-09-06T04:52:57;8.50;;;3.78;;
54993;SDS011;40891;47.242;8.648;2022-09-06T04:55:22;8.10;;;3.65;;
54993;SDS011;40891;47.242;8.648;2022-09-06T04:57:49;4.72;;;3.88;;
54993;SDS011;40891;47.242;8.648;2022-09-06T05:00:14;4.88;;;3.60;;
54993;SDS011;40891;47.242;8.648;2022-09-06T05:02:40;5.07;;;3.78;;
54993;SDS011;40891;47.242;8.648;2022-09-06T05:05:06;6.47;;;3.58;;
54993;SDS011;40891;47.242;8.648;2022-09-06T05:07:32;5.70;;;3.78;;
54993;SDS011;40891;47.242;8.648;2022-09-06T05:09:57;6.50;;;3.90;;
54993;SDS011;40891;47.242;8.648;2022-09-06T05:12:22;6.60;;;3.42;;
54993;SDS011;40891;47.242;8.648;2022-09-06T05:14:47;5.43;;;3.75;;
54993;SDS011;40891;47.242;8.648;2022-09-06T05:17:13;6.35;;;3.30;;
54993;SDS011;40891;47.242;8.648;2022-09-06T05:19:39;9.88;;;3.97;;
54993;SDS011;40891;47.242;8.648;2022-09-06T05:22:04;11.00;;;3.70;;
54993;SDS011;40891;47.242;8.648;2022-09-06T05:24:30;6.20;;;3.80;;
54993;SDS011;40891;47.242;8.648;2022-09-06T05:26:55;5.47;;;3.55;;
54993;SDS011;40891;47.242;8.648;2022-09-06T05:29:20;4.93;;;3.20;;
54993;SDS011;40891;47.242;8.648;2022-09-06T05:31:46;3.92;;;3.28;;
54993;SDS011;40891;47.242;8.648;2022-09-06T05:34:11;4.10;;;3.13;;
54993;SDS011;40891;47.242;8.648;2022-09-06T05:36:37;5.88;;;3.13;;
54993;SDS011;40891;47.242;8.648;2022-09-06T05:39:02;5.10;;;2.95;;
54993;SDS011;40891;47.242;8.648;2022-09-06T05:41:28;6.07;;;3.60;;
54993;SDS011;40891;47.242;8.648;2022-09-06T05:43:53;5.35;;;3.30;;
54993;SDS011;40891;47.242;8.648;2022-09-06T05:46:19;5.38;;;3.47;;
54993;SDS011;40891;47.242;8.648;2022-09-06T05:48:50;10.52;;;3.40;;
54993;SDS011;40891;47.242;8.648;2022-09-06T05:51:17;9.98;;;3.72;;
54993;SDS011;40891;47.242;8.648;2022-09-06T05:53:43;4.65;;;3.05;;
54993;SDS011;40891;47.242;8.648;2022-09-06T05:56:09;7.45;;;3.30;;
54993;SDS011;40891;47.242;8.648;2022-09-06T05:58:36;7.07;;;3.00;;
54993;SDS011;40891;47.242;8.648;2022-09-06T06:01:23;10.98;;;3.95;;
54993;SDS011;40891;47.242;8.648;2022-09-06T06:06:23;4.47;;;2.75;;
54993;SDS011;40891;47.242;8.648;2022-09-06T06:08:50;5.13;;;2.92;;
54993;SDS011;40891;47.242;8.648;2022-09-06T06:11:15;4.30;;;2.80;;
54993;SDS011;40891;47.242;8.648;2022-09-06T06:13:41;6.28;;;2.60;;
54993;SDS011;40891;47.242;8.648;2022-09-06T06:16:11;8.98;;;2.88;;
54993;SDS011;40891;47.242;8.648;2022-09-06T06:18:38;6.90;;;2.80;;
54993;SDS011;40891;47.242;8.648;2022-09-06T06:21:08;3.47;;;2.40;;
54993;SDS011;40891;47.242;8.648;2022-09-06T06:23:33;5.10;;;2.70;;
54993;SDS011;40891;47.242;8.648;2022-09-06T06:25:58;6.90;;;3.53;;
54993;SDS011;40891;47.242;8.648;2022-09-06T06:28:24;9.65;;;3.05;;
54993;SDS011;40891;47.242;8.648;2022-09-06T06:30:49;3.83;;;2.67;;
54993;SDS011;40891;47.242;8.648;2022-09-06T06:33:14;4.90;;;2.85;;
54993;SDS011;40891;47.242;8.648;2022-09-06T06:35:40;3.90;;;2.60;;
54993;SDS011;40891;47.242;8.648;2022-09-06T06:38:05;5.25;;;2.28;;
54993;SDS011;40891;47.242;8.648;2022-09-06T06:40:30;4.35;;;2.28;;
54993;SDS011;40891;47.242;8.648;2022-09-06T06:42:56;6.57;;;2.67;;
54993;SDS011;40891;47.242;8.648;2022-09-06T06:45:21;4.35;;;2.60;;
54993;SDS011;40891;47.242;8.648;2022-09-06T06:47:50;5.10;;;2.42;;
54993;SDS011;40891;47.242;8.648;2022-09-06T06:50:15;5.50;;;2.38;;
54993;SDS011;40891;47.242;8.648;2022-09-06T06:52:40;6.22;;;2.80;;
54993;SDS011;40891;47.242;8.648;2022-09-06T06:55:06;8.80;;;2.67;;
54993;SDS011;40891;47.242;8.648;2022-09-06T06:57:32;10.10;;;3.22;;
54993;SDS011;40891;47.242;8.648;2022-09-06T06:59:57;7.03;;;2.78;;
54993;SDS011;40891;47.242;8.648;2022-09-06T07:02:23;4.43;;;2.58;;
54993;SDS011;40891;47.242;8.648;2022-09-06T07:04:48;8.65;;;2.65;;
54993;SDS011;40891;47.242;8.648;2022-09-06T07:07:13;5.80;;;2.60;;
54993;SDS011;40891;47.242;8.648;2022-09-06T07:09:40;4.13;;;2.80;;
54993;SDS011;40891;47.242;8.648;2022-09-06T07:12:05;7.82;;;2.70;;
54993;SDS011;40891;47.242;8.648;2022-09-06T07:14:30;5.18;;;2.50;;
54993;SDS011;40891;47.242;8.648;2022-09-06T07:16:56;4.40;;;2.90;;
54993;SDS011;40891;47.242;8.648;2022-09-06T07:19:23;4.90;;;2.70;;
54993;SDS011;40891;47.242;8.648;2022-09-06T07:21:49;4.35;;;2.42;;
54993;SDS011;40891;47.242;8.648;2022-09-06T07:24:14;7.43;;;2.83;;
54993;SDS011;40891;47.242;8.648;2022-09-06T07:26:39;7.80;;;2.95;;
54993;SDS011;40891;47.242;8.648;2022-09-06T07:29:05;6.75;;;2.60;;
54993;SDS011;40891;47.242;8.648;2022-09-06T07:31:31;6.88;;;3.40;;
54993;SDS011;40891;47.242;8.648;2022-09-06T07:33:57;6.18;;;3.00;;
54993;SDS011;40891;47.242;8.648;2022-09-06T07:36:23;8.05;;;3.00;;
54993;SDS011;40891;47.242;8.648;2022-09-06T07:38:49;5.60;;;2.80;;
54993;SDS011;40891;47.242;8.648;2022-09-06T07:41:15;4.68;;;3.08;;
54993;SDS011;40891;47.242;8.648;2022-09-06T07:43:42;7.72;;;2.92;;
54993;SDS011;40891;47.242;8.648;2022-09-06T07:46:11;7.43;;;3.03;;
54993;SDS011;40891;47.242;8.648;2022-09-06T07:48:41;6.15;;;3.63;;
54993;SDS011;40891;47.242;8.648;2022-09-06T07:51:13;5.20;;;3.38;;
54993;SDS011;40891;47.242;8.648;2022-09-06T07:53:41;6.05;;;2.65;;
54993;SDS011;40891;47.242;8.648;2022-09-06T07:56:08;6.13;;;3.50;;
54993;SDS011;40891;47.242;8.648;2022-09-06T07:58:35;4.63;;;2.90;;
54993;SDS011;40891;47.242;8.648;2022-09-06T08:01:14;8.45;;;3.17;;
54993;SDS011;40891;47.242;8.648;2022-09-06T08:03:39;5.18;;;2.90;;
54993;SDS011;40891;47.242;8.648;2022-09-06T08:06:05;6.18;;;2.80;;
54993;SDS011;40891;47.242;8.648;2022-09-06T08:08:30;5.00;;;3.15;;
54993;SDS011;40891;47.242;8.648;2022-09-06T08:10:55;5.43;;;3.03;;
54993;SDS011;40891;47.242;8.648;2022-09-06T08:13:21;9.15;;;3.47;;
54993;SDS011;40891;47.242;8.648;2022-09-06T08:15:46;4.03;;;3.03;;
54993;SDS011;40891;47.242;8.648;2022-09-06T08:18:11;4.25;;;3.13;;
54993;SDS011;40891;47.242;8.648;2022-09-06T08:20:36;8.27;;;3.33;;
54993;SDS011;40891;47.242;8.648;2022-09-06T08:23:07;7.25;;;4.10;;
54993;SDS011;40891;47.242;8.648;2022-09-06T08:25:33;10.55;;;3.88;;
54993;SDS011;40891;47.242;8.648;2022-09-06T08:27:59;5.20;;;3.50;;
54993;SDS011;40891;47.242;8.648;2022-09-06T08:30:24;6.40;;;3.42;;
54993;SDS011;40891;47.242;8.648;2022-09-06T08:32:51;6.03;;;3.45;;
54993;SDS011;40891;47.242;8.648;2022-09-06T08:35:16;3.67;;;2.97;;
54993;SDS011;40891;47.242;8.648;2022-09-06T08:37:42;8.93;;;4.63;;
54993;SDS011;40891;47.242;8.648;2022-09-06T08:40:07;13.45;;;5.13;;
54993;SDS011;40891;47.242;8.648;2022-09-06T08:42:35;10.88;;;4.70;;
54993;SDS011;40891;47.242;8.648;2022-09-06T08:45:03;11.68;;;4.05;;
54993;SDS011;40891;47.242;8.648;2022-09-06T08:47:33;7.97;;;4.00;;
54993;SDS011;40891;47.242;8.648;2022-09-06T08:50:03;9.18;;;4.05;;
54993;SDS011;40891;47.242;8.648;2022-09-06T09:00:55;9.40;;;4.00;;
54993;SDS011;40891;47.242;8.648;2022-09-06T09:03:36;9.40;;;3.72;;
54993;SDS011;40891;47.242;8.648;2022-09-06T09:06:04;10.93;;;3.63;;
54993;SDS011;40891;47.242;8.648;2022-09-06T09:08:57;8.13;;;3.08;;
54993;SDS011;40891;47.242;8.648;2022-09-06T09:11:28;9.68;;;2.42;;
54993;SDS011;40891;47.242;8.648;2022-09-06T09:13:58;12.50;;;3.03;;
54993;SDS011;40891;47.242;8.648;2022-09-06T09:16:29;8.10;;;2.83;;
54993;SDS011;40891;47.242;8.648;2022-09-06T09:18:58;9.30;;;2.97;;
54993;SDS011;40891;47.242;8.648;2022-09-06T09:21:26;5.38;;;2.30;;
54993;SDS011;40891;47.242;8.648;2022-09-06T09:23:55;8.40;;;2.85;;
54993;SDS011;40891;47.242;8.648;2022-09-06T09:26:26;7.40;;;2.67;;
54993;SDS011;40891;47.242;8.648;2022-09-06T09:29:02;10.35;;;3.05;;
54993;SDS011;40891;47.242;8.648;2022-09-06T09:31:41;9.40;;;2.42;;
54993;SDS011;40891;47.242;8.648;2022-09-06T09:34:12;17.02;;;2.53;;
54993;SDS011;40891;47.242;8.648;2022-09-06T09:37:08;12.88;;;2.72;;
54993;SDS011;40891;47.242;8.648;2022-09-06T09:39:47;9.50;;;2.25;;
54993;SDS011;40891;47.242;8.648;2022-09-06T09:42:15;6.95;;;2.30;;
54993;SDS011;40891;47.242;8.648;2022-09-06T09:44:50;10.45;;;3.33;;
54993;SDS011;40891;47.242;8.648;2022-09-06T09:47:25;9.32;;;2.38;;
54993;SDS011;40891;47.242;8.648;2022-09-06T09:49:53;8.40;;;2.58;;
54993;SDS011;40891;47.242;8.648;2022-09-06T09:52:25;7.53;;;2.83;;
54993;SDS011;40891;47.242;8.648;2022-09-06T09:54:55;8.65;;;2.65;;
54993;SDS011;40891;47.242;8.648;2022-09-06T09:57:25;9.95;;;3.28;;
54993;SDS011;40891;47.242;8.648;2022-09-06T09:59:54;6.57;;;2.20;;
54993;SDS011;40891;47.242;8.648;2022-09-06T10:02:23;8.32;;;2.40;;
54993;SDS011;40891;47.242;8.648;2022-09-06T10:04:59;8.85;;;2.30;;
54993;SDS011;40891;47.242;8.648;2022-09-06T10:07:26;8.88;;;2.20;;
54993;SDS011;40891;47.242;8.648;2022-09-06T10:12:36;9.38;;;2.17;;
54993;SDS011;40891;47.242;8.648;2022-09-06T10:15:03;7.57;;;2.35;;
54993;SDS011;40891;47.242;8.648;2022-09-06T10:20:00;5.82;;;2.10;;
54993;SDS011;40891;47.242;8.648;2022-09-06T10:25:45;7.03;;;2.22;;
54993;SDS011;40891;47.242;8.648;2022-09-06T10:36:14;6.05;;;2.47;;
54993;SDS011;40891;47.242;8.648;2022-09-06T10:38:53;9.88;;;2.22;;
54993;SDS011;40891;47.242;8.648;2022-09-06T10:44:29;9.52;;;2.60;;
54993;SDS011;40891;47.242;8.648;2022-09-06T10:47:09;6.32;;;2.00;;
54993;SDS011;40891;47.242;8.648;2022-09-06T10:49:36;5.55;;;2.50;;
54993;SDS011;40891;47.242;8.648;2022-09-06T10:52:06;5.88;;;2.10;;
54993;SDS011;40891;47.242;8.648;2022-09-06T10:54:36;6.20;;;2.35;;
54993;SDS011;40891;47.242;8.648;2022-09-06T10:57:09;6.18;;;2.20;;
54993;SDS011;40891;47.242;8.648;2022-09-06T10:59:52;5.55;;;2.10;;
54993;SDS011;40891;47.242;8.648;2022-09-06T11:02:39;5.40;;;2.00;;
54993;SDS011;40891;47.242;8.648;2022-09-06T11:05:15;7.18;;;2.20;;
54993;SDS011;40891;47.242;8.648;2022-09-06T11:08:06;4.32;;;2.08;;
54993;SDS011;40891;47.242;8.648;2022-09-06T11:10:37;4.53;;;2.00;;
54993;SDS011;40891;47.242;8.648;2022-09-06T11:13:10;6.90;;;2.20;;
54993;SDS011;40891;47.242;8.648;2022-09-06T11:18:27;5.35;;;2.20;;
54993;SDS011;40891;47.242;8.648;2022-09-06T11:24:30;5.95;;;2.20;;
54993;SDS011;40891;47.242;8.648;2022-09-06T11:29:39;5.68;;;1.75;;
54993;SDS011;40891;47.242;8.648;2022-09-06T11:32:26;3.63;;;1.70;;
54993;SDS011;40891;47.242;8.648;2022-09-06T11:34:55;6.60;;;1.98;;
54993;SDS011;40891;47.242;8.648;2022-09-06T11:37:43;3.67;;;1.73;;
54993;SDS011;40891;47.242;8.648;2022-09-06T11:40:16;4.53;;;2.10;;
54993;SDS011;40891;47.242;8.648;2022-09-06T11:45:14;5.60;;;2.08;;
54993;SDS011;40891;47.242;8.648;2022-09-06T11:53:17;5.88;;;2.15;;
54993;SDS011;40891;47.242;8.648;2022-09-06T11:55:47;5.32;;;2.40;;
54993;SDS011;40891;47.242;8.648;2022-09-06T12:00:43;5.63;;;2.53;;
54993;SDS011;40891;47.242;8.648;2022-09-06T12:06:20;4.72;;;2.20;;
54993;SDS011;40891;47.242;8.648;2022-09-06T12:08:52;6.65;;;2.17;;
54993;SDS011;40891;47.242;8.648;2022-09-06T12:14:05;6.43;;;2.10;;
54993;SDS011;40891;47.242;8.648;2022-09-06T12:19:40;7.43;;;2.60;;
54993;SDS011;40891;47.242;8.648;2022-09-06T12:30:36;9.15;;;2.70;;
54993;SDS011;40891;47.242;8.648;2022-09-06T12:33:25;6.65;;;2.50;;
54993;SDS011;40891;47.242;8.648;2022-09-06T12:35:52;5.60;;;2.50;;
54993;SDS011;40891;47.242;8.648;2022-09-06T12:38:35;8.13;;;2.40;;
54993;SDS011;40891;47.242;8.648;2022-09-06T12:41:01;5.72;;;2.35;;
54993;SDS011;40891;47.242;8.648;2022-09-06T12:43:28;10.13;;;2.55;;
54993;SDS011;40891;47.242;8.648;2022-09-06T12:45:59;8.30;;;2.20;;
54993;SDS011;40891;47.242;8.648;2022-09-06T12:48:29;4.93;;;2.45;;
54993;SDS011;40891;47.242;8.648;2022-09-06T12:51:03;6.95;;;2.40;;
54993;SDS011;40891;47.242;8.648;2022-09-06T12:53:28;7.43;;;2.20;;
54993;SDS011;40891;47.242;8.648;2022-09-06T12:56:11;5.43;;;2.00;;
54993;SDS011;40891;47.242;8.648;2022-09-06T12:58:36;9.88;;;2.53;;
54993;SDS011;40891;47.242;8.648;2022-09-06T13:03:38;6.75;;;1.70;;
54993;SDS011;40891;47.242;8.648;2022-09-06T13:06:07;5.78;;;1.98;;
54993;SDS011;40891;47.242;8.648;2022-09-06T13:08:40;4.28;;;1.85;;
54993;SDS011;40891;47.242;8.648;2022-09-06T13:11:12;5.63;;;1.95;;
54993;SDS011;40891;47.242;8.648;2022-09-06T13:13:47;5.22;;;1.63;;
54993;SDS011;40891;47.242;8.648;2022-09-06T13:16:21;3.42;;;1.67;;
54993;SDS011;40891;47.242;8.648;2022-09-06T13:18:49;4.00;;;1.33;;
54993;SDS011;40891;47.242;8.648;2022-09-06T13:21:23;7.47;;;2.00;;
54993;SDS011;40891;47.242;8.648;2022-09-06T13:23:51;4.55;;;1.90;;
54993;SDS011;40891;47.242;8.648;2022-09-06T13:26:36;4.95;;;1.60;;
54993;SDS011;40891;47.242;8.648;2022-09-06T13:32:14;5.40;;;1.40;;
54993;SDS011;40891;47.242;8.648;2022-09-06T13:34:38;4.30;;;1.45;;
54993;SDS011;40891;47.242;8.648;2022-09-06T13:37:14;5.68;;;1.50;;
54993;SDS011;40891;47.242;8.648;2022-09-06T13:39:40;5.97;;;1.88;;
54993;SDS011;40891;47.242;8.648;2022-09-06T13:42:21;4.78;;;1.45;;
54993;SDS011;40891;47.242;8.648;2022-09-06T13:44:54;5.53;;;2.13;;
54993;SDS011;40891;47.242;8.648;2022-09-06T13:47:20;6.32;;;1.80;;
54993;SDS011;40891;47.242;8.648;2022-09-06T13:49:46;4.30;;;2.10;;
54993;SDS011;40891;47.242;8.648;2022-09-06T13:52:11;7.18;;;1.88;;
54993;SDS011;40891;47.242;8.648;2022-09-06T13:54:38;9.05;;;1.85;;
54993;SDS011;40891;47.242;8.648;2022-09-06T13:57:03;5.15;;;1.45;;
54993;SDS011;40891;47.242;8.648;2022-09-06T13:59:29;4.03;;;1.52;;
54993;SDS011;40891;47.242;8.648;2022-09-06T14:02:05;4.45;;;1.70;;
54993;SDS011;40891;47.242;8.648;2022-09-06T14:04:33;4.78;;;1.63;;
54993;SDS011;40891;47.242;8.648;2022-09-06T14:06:59;7.65;;;1.60;;
54993;SDS011;40891;47.242;8.648;2022-09-06T14:09:25;6.35;;;2.13;;
54993;SDS011;40891;47.242;8.648;2022-09-06T14:11:50;6.30;;;1.85;;
54993;SDS011;40891;47.242;8.648;2022-09-06T14:14:15;7.32;;;1.85;;
54993;SDS011;40891;47.242;8.648;2022-09-06T14:16:41;4.63;;;1.67;;
54993;SDS011;40891;47.242;8.648;2022-09-06T14:19:07;8.40;;;2.00;;
54993;SDS011;40891;47.242;8.648;2022-09-06T14:21:33;4.22;;;1.88;;
54993;SDS011;40891;47.242;8.648;2022-09-06T14:23:59;7.03;;;1.88;;
54993;SDS011;40891;47.242;8.648;2022-09-06T14:26:24;7.15;;;2.20;;
54993;SDS011;40891;47.242;8.648;2022-09-06T14:28:49;5.93;;;2.10;;
54993;SDS011;40891;47.242;8.648;2022-09-06T14:31:22;6.63;;;2.05;;
54993;SDS011;40891;47.242;8.648;2022-09-06T14:33:52;4.70;;;1.73;;
54993;SDS011;40891;47.242;8.648;2022-09-06T14:36:21;4.85;;;1.70;;
54993;SDS011;40891;47.242;8.648;2022-09-06T14:38:48;9.00;;;1.92;;
54993;SDS011;40891;47.242;8.648;2022-09-06T14:41:14;6.90;;;2.03;;
54993;SDS011;40891;47.242;8.648;2022-09-06T14:43:41;7.85;;;2.47;;
54993;SDS011;40891;47.242;8.648;2022-09-06T14:46:11;8.77;;;2.60;;
54993;SDS011;40891;47.242;8.648;2022-09-06T14:48:38;7.30;;;2.30;;
54993;SDS011;40891;47.242;8.648;2022-09-06T14:53:41;8.57;;;2.20;;
54993;SDS011;40891;47.242;8.648;2022-09-06T14:56:07;7.25;;;2.25;;
54993;SDS011;40891;47.242;8.648;2022-09-06T14:58:34;5.78;;;1.95;;
54993;SDS011;40891;47.242;8.648;2022-09-06T15:01:17;4.60;;;2.17;;
54993;SDS011;40891;47.242;8.648;2022-09-06T15:03:45;5.75;;;2.00;;
54993;SDS011;40891;47.242;8.648;2022-09-06T15:06:16;6.22;;;2.00;;
54993;SDS011;40891;47.242;8.648;2022-09-06T15:08:42;4.78;;;2.17;;
54993;SDS011;40891;47.242;8.648;2022-09-06T15:11:08;7.43;;;2.40;;
54993;SDS011;40891;47.242;8.648;2022-09-06T15:13:35;7.18;;;2.22;;
54993;SDS011;40891;47.242;8.648;2022-09-06T15:16:01;4.05;;;2.17;;
54993;SDS011;40891;47.242;8.648;2022-09-06T15:18:27;5.63;;;2.33;;
54993;SDS011;40891;47.242;8.648;2022-09-06T15:20:53;9.70;;;2.13;;
54993;SDS011;40891;47.242;8.648;2022-09-06T15:23:18;11.50;;;2.35;;
54993;SDS011;40891;47.242;8.648;2022-09-06T15:25:47;7.25;;;2.00;;
54993;SDS011;40891;47.242;8.648;2022-09-06T15:28:14;5.30;;;1.90;;
54993;SDS011;40891;47.242;8.648;2022-09-06T15:30:40;4.05;;;1.80;;
54993;SDS011;40891;47.242;8.648;2022-09-06T15:33:06;7.60;;;1.88;;
54993;SDS011;40891;47.242;8.648;2022-09-06T15:35:34;5.15;;;1.88;;
54993;SDS011;40891;47.242;8.648;2022-09-06T15:38:00;7.35;;;1.80;;
54993;SDS011;40891;47.242;8.648;2022-09-06T15:40:26;8.32;;;2.17;;
54993;SDS011;40891;47.242;8.648;2022-09-06T15:42:51;6.18;;;2.53;;
54993;SDS011;40891;47.242;8.648;2022-09-06T15:45:16;5.32;;;2.00;;
54993;SDS011;40891;47.242;8.648;2022-09-06T15:47:42;7.07;;;2.20;;
54993;SDS011;40891;47.242;8.648;2022-09-06T15:50:07;6.50;;;2.08;;
54993;SDS011;40891;47.242;8.648;2022-09-06T15:52:33;6.80;;;2.15;;
54993;SDS011;40891;47.242;8.648;2022-09-06T15:55:00;6.00;;;2.22;;
54993;SDS011;40891;47.242;8.648;2022-09-06T15:57:44;5.90;;;2.35;;
54993;SDS011;40891;47.242;8.648;2022-09-06T16:00:11;7.95;;;2.88;;
54993;SDS011;40891;47.242;8.648;2022-09-06T16:02:37;8.48;;;2.60;;
54993;SDS011;40891;47.242;8.648;2022-09-06T16:05:03;8.55;;;2.60;;
54993;SDS011;40891;47.242;8.648;2022-09-06T16:07:29;8.40;;;2.72;;
54993;SDS011;40891;47.242;8.648;2022-09-06T16:09:54;5.97;;;3.10;;
54993;SDS011;40891;47.242;8.648;2022-09-06T16:12:20;7.55;;;2.53;;
54993;SDS011;40891;47.242;8.648;2022-09-06T16:14:45;11.07;;;2.88;;
54993;SDS011;40891;47.242;8.648;2022-09-06T16:17:10;7.57;;;2.65;;
54993;SDS011;40891;47.242;8.648;2022-09-06T16:19:36;4.57;;;2.72;;
54993;SDS011;40891;47.242;8.648;2022-09-06T16:22:01;10.02;;;3.25;;
54993;SDS011;40891;47.242;8.648;2022-09-06T16:24:27;8.02;;;3.03;;
54993;SDS011;40891;47.242;8.648;2022-09-06T16:26:52;9.38;;;3.00;;
54993;SDS011;40891;47.242;8.648;2022-09-06T16:29:17;7.32;;;2.60;;
54993;SDS011;40891;47.242;8.648;2022-09-06T16:31:44;7.93;;;2.70;;
54993;SDS011;40891;47.242;8.648;2022-09-06T16:34:10;10.25;;;3.10;;
54993;SDS011;40891;47.242;8.648;2022-09-06T16:36:36;3.17;;;2.45;;
54993;SDS011;40891;47.242;8.648;2022-09-06T16:39:02;6.82;;;2.55;;